Time;durP1;ratioP1;P1;durP2;ratioP2;P2;SDS_P1;SDS_P2;PMS_P1;PMS_P2;Temp;Humidity;BMP_temperature;BMP_pressure;BME280_temperature;BME280_humidity;BME280_pressure;Samples;Min_cycle;Max_cycle;Signal;HPM_P1;HPM_P2
2022/12/22 03:28:14;;;;;;;129.07;63.67;;;;;;;7.51;85.69;101480.31;5017508;28;20052;-82
2022/12/22 03:30:44;;;;;;;131.02;64.65;;;;;;;7.77;86.36;101519.19;4999742;28;20068;-81
2022/12/22 03:33:11;;;;;;;129.48;63.38;;;;;;;7.70;85.69;101510.78;4999929;28;20045;-81
2022/12/22 03:35:40;;;;;;;123.10;64.57;;;;;;;7.77;85.99;101511.25;5000038;28;20049;-82
2022/12/22 03:38:06;;;;;;;133.35;65.30;;;;;;;7.68;86.20;101485.38;5000399;28;20259;-82
2022/12/22 03:40:33;;;;;;;125.53;63.38;;;;;;;7.56;86.20;101462.38;4999310;28;20049;-82
2022/12/22 03:46:29;;;;;;;126.00;64.68;;;;;;;7.80;86.13;101521.63;5017971;28;20045;-82
2022/12/22 03:49:08;;;;;;;130.82;63.20;;;;;;;7.80;86.07;101512.84;4999628;28;20242;-82
2022/12/22 03:51:38;;;;;;;122.75;62.78;;;;;;;7.75;85.76;101515.78;4999623;28;20115;-82
2022/12/22 03:54:06;;;;;;;124.88;66.47;;;;;;;7.32;85.25;101439.16;5016947;28;20061;-82
2022/12/22 03:56:32;;;;;;;130.82;65.18;;;;;;;7.63;84.90;101495.41;4997498;28;20079;-83
2022/12/22 03:58:59;;;;;;;128.95;62.88;;;;;;;7.83;84.85;101507.34;4998440;28;20807;-82
2022/12/22 04:01:26;;;;;;;136.15;63.08;;;;;;;7.84;85.26;101520.50;5014190;28;20523;-82
2022/12/22 04:03:53;;;;;;;129.35;65.93;;;;;;;7.67;85.13;101496.88;5017194;28;20519;-83
2022/12/22 04:06:22;;;;;;;137.30;67.13;;;;;;;7.82;84.76;101506.50;5018504;28;20052;-82
2022/12/22 04:08:52;;;;;;;137.95;67.95;;;;;;;6.83;85.13;101361.19;5017679;28;20060;-82
2022/12/22 04:14:24;;;;;;;135.93;66.32;;;;;;;7.75;85.51;101489.34;4979119;28;20058;-82
2022/12/22 04:17:04;;;;;;;137.63;64.90;;;;;;;7.81;84.91;101494.22;4961955;28;20133;-81
2022/12/22 04:19:31;;;;;;;134.65;63.78;;;;;;;7.68;85.05;101488.88;4982190;28;20532;-82
2022/12/22 04:22:04;;;;;;;125.47;64.30;;;;;;;7.80;84.50;101492.53;5017231;28;20079;-81
2022/12/22 04:24:30;;;;;;;136.77;65.85;;;;;;;7.76;84.72;101490.19;5016095;28;20458;-81
2022/12/22 04:26:58;;;;;;;135.40;65.05;;;;;;;7.98;84.63;101490.50;4999644;28;20055;-81
2022/12/22 04:29:31;;;;;;;134.35;62.40;;;;;;;7.85;84.34;101485.16;4998969;28;20151;-81
2022/12/22 04:31:58;;;;;;;129.23;62.15;;;;;;;7.87;84.08;101475.34;5015515;28;20320;-83
2022/12/22 04:34:25;;;;;;;127.93;62.05;;;;;;;7.64;84.51;101454.78;5018387;28;20140;-81
2022/12/22 04:36:51;;;;;;;141.05;60.97;;;;;;;7.83;84.33;101487.06;4998961;28;20541;-82
2022/12/22 04:39:18;;;;;;;119.75;60.53;;;;;;;7.73;85.00;101462.16;5001751;28;20053;-81
2022/12/22 04:41:45;;;;;;;118.78;58.75;;;;;;;7.54;85.40;101419.34;4997891;28;20392;-81
2022/12/22 04:44:11;;;;;;;131.25;60.92;;;;;;;7.70;85.50;101439.41;5015806;28;20453;-82
2022/12/22 04:46:38;;;;;;;120.97;61.03;;;;;;;7.78;84.64;101457.41;4999803;28;20053;-81
2022/12/22 04:49:05;;;;;;;122.38;60.67;;;;;;;7.80;85.41;101481.13;5000972;28;20053;-82
2022/12/22 04:51:35;;;;;;;126.00;62.25;;;;;;;7.81;85.24;101478.38;5001195;28;20155;-81
2022/12/22 04:54:02;;;;;;;126.82;60.00;;;;;;;7.75;85.41;101481.41;5004949;28;20211;-82
2022/12/22 04:56:28;;;;;;;122.72;58.58;;;;;;;7.39;85.36;101424.63;4999400;28;20338;-80
2022/12/22 04:58:55;;;;;;;116.03;58.05;;;;;;;7.76;86.00;101484.91;4998535;28;20053;-82
2022/12/22 05:01:22;;;;;;;124.95;60.97;;;;;;;7.51;86.06;101443.31;5015072;28;20435;-82
2022/12/22 05:03:50;;;;;;;138.48;60.97;;;;;;;7.78;85.33;101485.66;4999382;28;20408;-82
2022/12/22 05:06:17;;;;;;;123.72;60.63;;;;;;;7.75;85.07;101478.78;5012034;28;20041;-81
2022/12/22 05:08:43;;;;;;;122.90;60.42;;;;;;;7.62;85.11;101454.03;5014744;28;20079;-82
2022/12/22 05:11:13;;;;;;;123.95;59.03;;;;;;;7.88;85.29;101466.44;4997715;28;20049;-82
2022/12/22 05:13:40;;;;;;;120.07;59.58;;;;;;;7.85;85.51;101466.66;4999453;28;20333;-82
2022/12/22 05:16:11;;;;;;;127.03;59.53;;;;;;;7.82;85.22;101485.38;4999463;28;20045;-81
2022/12/22 05:18:39;;;;;;;116.35;57.38;;;;;;;7.82;85.69;101469.50;4998424;28;20372;-82
2022/12/22 05:21:09;;;;;;;122.13;59.58;;;;;;;7.46;85.28;101401.31;5015973;28;20416;-82
2022/12/22 05:23:36;;;;;;;121.20;59.95;;;;;;;7.79;85.26;101484.69;5001764;28;20110;-82
2022/12/22 05:26:03;;;;;;;119.82;59.67;;;;;;;7.64;85.57;101482.06;5013863;28;20053;-82
2022/12/22 05:28:32;;;;;;;115.88;58.47;;;;;;;7.58;84.86;101481.63;5012892;28;20285;-82
2022/12/22 05:31:28;;;;;;;123.72;58.22;;;;;;;7.39;83.62;101445.75;5024151;28;20057;-81
2022/12/22 05:34:01;;;;;;;121.32;58.60;;;;;;;7.51;83.56;101472.38;4978904;28;20045;-81
2022/12/22 05:36:30;;;;;;;112.80;54.08;;;;;;;7.32;83.02;101441.81;4981985;28;20218;-82
2022/12/22 05:38:56;;;;;;;114.60;56.90;;;;;;;7.53;82.86;101481.06;4982509;28;20171;-81
2022/12/22 05:41:23;;;;;;;118.85;57.45;;;;;;;7.65;82.60;101514.66;5001323;28;20049;-82
2022/12/22 05:43:50;;;;;;;115.57;56.65;;;;;;;7.39;82.47;101471.34;4996745;28;20530;-81
2022/12/22 05:46:16;;;;;;;113.22;57.08;;;;;;;7.69;81.81;101529.34;5020985;28;20111;-82
2022/12/22 05:48:48;;;;;;;114.03;57.40;;;;;;;7.65;82.32;101512.00;5010427;28;20060;-80
2022/12/22 05:51:14;;;;;;;122.33;56.20;;;;;;;7.64;82.86;101510.28;4984160;28;20045;-82
2022/12/22 05:53:42;;;;;;;116.05;58.42;;;;;;;7.44;83.03;101475.38;4996117;28;20310;-81
2022/12/22 05:56:09;;;;;;;114.70;58.33;;;;;;;7.38;83.18;101474.91;5037672;28;20052;-82
2022/12/22 05:58:37;;;;;;;118.10;59.95;;;;;;;7.63;82.93;101505.97;5003287;28;20045;-82
2022/12/22 06:01:04;;;;;;;123.40;58.63;;;;;;;7.62;82.12;101475.19;5019326;28;20242;-81
2022/12/22 06:03:31;;;;;;;126.53;61.03;;;;;;;7.57;82.81;101464.06;5002041;28;20303;-80
2022/12/22 06:06:01;;;;;;;117.80;62.00;;;;;;;7.32;84.17;101423.31;4987943;28;20350;-82
2022/12/22 06:08:28;;;;;;;125.38;58.42;;;;;;;7.58;84.45;101471.06;5031933;28;20436;-82
2022/12/22 06:10:56;;;;;;;122.80;61.15;;;;;;;7.21;83.65;101407.31;5012442;28;20444;-81
2022/12/22 06:13:25;;;;;;;123.78;59.40;;;;;;;7.52;83.97;101460.84;5010714;28;20059;-79
2022/12/22 06:15:51;;;;;;;116.60;58.13;;;;;;;7.62;83.83;101488.38;5005361;28;20049;-80
2022/12/22 06:18:18;;;;;;;113.72;57.72;;;;;;;7.71;83.87;101482.53;5003676;28;20230;-80
2022/12/22 06:20:46;;;;;;;129.23;62.15;;;;;;;6.54;83.73;101282.97;5000358;28;20304;-81
2022/12/22 06:23:16;;;;;;;110.78;56.78;;;;;;;7.59;84.21;101488.59;5003881;28;20148;-80
2022/12/22 06:25:55;;;;;;;116.65;58.60;;;;;;;7.64;84.26;101507.66;5021472;28;20049;-79
2022/12/22 06:28:26;;;;;;;109.22;57.50;;;;;;;7.57;83.93;101509.81;5002673;28;20051;-79
2022/12/22 06:30:54;;;;;;;122.28;60.40;;;;;;;7.57;84.23;101516.91;4999191;28;20164;-80
2022/12/22 06:33:22;;;;;;;124.97;59.17;;;;;;;7.44;84.26;101517.66;5000334;28;20041;-80
2022/12/22 06:35:52;;;;;;;125.68;60.13;;;;;;;7.42;84.95;101503.69;4999631;28;20049;-81
2022/12/22 06:38:26;;;;;;;125.28;60.47;;;;;;;7.39;85.55;101509.16;5020981;28;20645;-80
2022/12/22 06:40:53;;;;;;;135.27;61.45;;;;;;;7.59;84.95;101530.88;5016195;28;20346;-80
2022/12/22 06:43:20;;;;;;;126.63;62.17;;;;;;;7.56;84.93;101520.50;5000043;28;20381;-79
2022/12/22 06:45:50;;;;;;;139.02;62.63;;;;;;;7.62;85.64;101505.13;5018377;28;20044;-79
2022/12/22 06:48:17;;;;;;;125.28;62.40;;;;;;;7.65;84.63;101488.22;5008670;28;20098;-79
2022/12/22 06:50:47;;;;;;;124.75;60.60;;;;;;;7.77;85.29;101492.75;5002089;28;20079;-80
2022/12/22 06:53:14;;;;;;;129.90;62.42;;;;;;;7.77;85.24;101492.75;5001724;28;20167;-81
2022/12/22 06:55:42;;;;;;;135.25;61.67;;;;;;;7.77;85.90;101487.44;5002149;28;20633;-80
2022/12/22 06:58:09;;;;;;;131.57;61.92;;;;;;;7.79;85.55;101459.13;5003851;28;20130;-80
2022/12/22 07:00:36;;;;;;;141.00;63.55;;;;;;;7.73;85.33;101425.16;5002328;28;20557;-79
2022/12/22 07:03:02;;;;;;;125.70;61.63;;;;;;;7.81;85.40;101443.16;4997952;28;20053;-78
2022/12/22 07:05:30;;;;;;;134.38;61.70;;;;;;;7.50;85.58;101408.13;4998007;28;20431;-82
2022/12/22 07:07:59;;;;;;;130.43;64.38;;;;;;;7.83;85.56;101481.75;5000738;28;20518;-81
2022/12/22 07:11:07;;;;;;;135.23;63.47;;;;;;;7.80;85.47;101481.97;4997359;28;20057;-82
2022/12/22 07:13:30;;;;;;;126.38;62.00;;;;;;;7.81;86.11;101478.38;4997096;28;20137;-82
2022/12/22 07:16:02;;;;;;;128.43;59.38;;;;;;;7.57;86.55;101424.41;4997352;28;20435;-83
2022/12/22 07:18:31;;;;;;;126.35;62.20;;;;;;;7.84;85.28;101451.75;5001288;28;20089;-83
2022/12/22 07:21:01;;;;;;;120.50;60.90;;;;;;;7.56;85.93;101420.94;4997072;28;20058;-83
2022/12/22 07:23:33;;;;;;;131.25;61.28;;;;;;;7.75;86.13;101470.84;4996751;28;20222;-83
2022/12/22 07:26:04;;;;;;;127.53;61.60;;;;;;;7.75;86.06;101476.13;4997044;28;20493;-82
2022/12/22 07:28:33;;;;;;;123.95;60.42;;;;;;;7.84;85.74;101494.06;4994686;28;20068;-83
2022/12/22 07:30:59;;;;;;;129.48;61.97;;;;;;;7.64;85.58;101444.22;4996757;28;20057;-82
2022/12/22 07:33:27;;;;;;;126.85;57.47;;;;;;;7.74;86.14;101440.03;4998004;28;20136;-83
2022/12/22 07:36:11;;;;;;;123.18;60.65;;;;;;;7.74;85.74;101434.75;4996394;28;20080;-83
2022/12/22 07:38:41;;;;;;;120.97;60.22;;;;;;;7.61;85.54;101415.34;4999877;28;20686;-83
2022/12/22 07:43:58;;;;;;;121.65;58.92;;;;;;;7.98;85.10;101468.50;5009005;28;20057;-83
2022/12/22 07:46:27;;;;;;;133.57;62.58;;;;;;;7.68;84.99;101424.59;5026826;28;20126;-84
2022/12/22 07:51:42;;;;;;;123.20;59.92;;;;;;;7.44;85.71;101419.91;5010312;28;20046;-83
2022/12/22 07:54:12;;;;;;;134.50;61.17;;;;;;;7.96;85.80;101491.56;4998842;28;20144;-83
2022/12/22 07:56:39;;;;;;;127.40;59.03;;;;;;;7.97;85.37;101485.34;4997098;28;20079;-83
2022/12/22 07:59:06;;;;;;;120.25;57.72;;;;;;;7.91;85.50;101474.22;4995841;28;20136;-82
2022/12/22 08:01:34;;;;;;;118.45;60.28;;;;;;;7.93;86.05;101482.88;4996770;28;20061;-82
2022/12/22 08:04:01;;;;;;;123.57;63.13;;;;;;;7.65;86.10;101448.59;4981736;28;20262;-82
2022/12/22 08:06:28;;;;;;;125.10;58.58;;;;;;;7.95;86.25;101489.88;4979614;28;20137;-82
2022/12/22 08:09:02;;;;;;;114.90;57.40;;;;;;;7.75;86.16;101457.63;4981214;28;20073;-82
2022/12/22 08:11:36;;;;;;;139.55;63.83;;;;;;;7.73;85.68;101470.09;4976534;28;20224;-82
2022/12/22 08:14:02;;;;;;;136.82;64.07;;;;;;;7.81;85.73;101482.81;4977345;28;20052;-82
2022/12/22 08:16:39;;;;;;;129.95;61.75;;;;;;;7.92;85.30;101490.91;4979141;28;20041;-81
2022/12/22 08:19:06;;;;;;;173.50;67.07;;;;;;;8.09;85.27;101508.34;4979078;28;20469;-82
2022/12/22 08:21:33;;;;;;;177.48;69.70;;;;;;;8.03;85.01;101488.41;4977581;28;20354;-82
2022/12/22 08:24:00;;;;;;;144.15;64.57;;;;;;;7.64;85.82;101423.94;4976940;28;20062;-82
2022/12/22 08:26:32;;;;;;;143.30;62.28;;;;;;;8.00;85.13;101475.41;4977238;28;20551;-82
2022/12/22 08:29:14;;;;;;;138.15;63.20;;;;;;;8.29;83.73;101523.78;4978537;28;20422;-81
2022/12/22 08:31:42;;;;;;;134.23;62.03;;;;;;;8.37;84.08;101535.66;4972780;28;20246;-82
2022/12/22 08:34:13;;;;;;;135.43;60.95;;;;;;;8.06;82.70;101472.38;4959960;28;20322;-83
2022/12/22 08:36:45;;;;;;;151.68;62.17;;;;;;;7.35;82.50;101367.66;4957418;28;20101;-82
2022/12/22 08:39:14;;;;;;;129.80;60.03;;;;;;;8.46;82.40;101543.88;4958051;28;20165;-82
2022/12/22 08:41:50;;;;;;;142.98;59.83;;;;;;;8.25;82.42;101508.19;4963930;28;20958;-82
2022/12/22 08:44:26;;;;;;;143.32;61.97;;;;;;;8.44;82.27;101539.66;4979621;28;20056;-82
2022/12/22 08:46:56;;;;;;;134.40;62.17;;;;;;;8.52;81.73;101524.13;4995188;28;20152;-82
2022/12/22 08:49:23;;;;;;;132.77;60.50;;;;;;;8.40;80.77;101501.97;4993842;28;20058;-81
2022/12/22 08:51:51;;;;;;;129.43;57.55;;;;;;;8.50;80.67;101545.41;4973701;28;20176;-81
2022/12/22 08:54:19;;;;;;;130.18;59.42;;;;;;;8.58;80.50;101552.81;4978796;28;20050;-83
2022/12/22 08:56:46;;;;;;;130.07;59.25;;;;;;;8.05;81.24;101483.03;4977568;28;20054;-82
2022/12/22 08:59:13;;;;;;;133.25;60.33;;;;;;;7.86;80.89;101439.28;4977317;28;20676;-81
2022/12/22 09:01:42;;;;;;;112.20;54.80;;;;;;;8.58;80.20;101559.94;4971047;28;20586;-81
2022/12/22 09:04:14;;;;;;;138.27;57.67;;;;;;;8.44;80.17;101547.59;4990162;28;20057;-80
2022/12/22 09:06:41;;;;;;;122.50;56.60;;;;;;;8.62;80.47;101570.22;4981516;28;20057;-80
2022/12/22 09:09:10;;;;;;;122.20;58.38;;;;;;;8.74;80.24;101580.00;4995189;28;20450;-80
2022/12/22 09:11:41;;;;;;;124.20;60.00;;;;;;;8.67;79.90;101551.38;4997972;28;20045;-80
2022/12/22 09:14:10;;;;;;;124.03;58.88;;;;;;;8.43;79.54;101500.91;4997088;28;21017;-80
2022/12/22 09:16:37;;;;;;;130.93;59.63;;;;;;;8.71;79.53;101548.44;4996523;28;20514;-80
2022/12/22 09:19:09;;;;;;;120.45;59.22;;;;;;;8.68;80.36;101543.31;4995594;28;20150;-79
2022/12/22 09:21:36;;;;;;;113.93;55.10;;;;;;;8.50;79.49;101499.56;4999691;28;20049;-80
2022/12/22 09:24:06;;;;;;;128.65;56.97;;;;;;;8.72;80.27;101534.25;4997414;28;20140;-80
2022/12/22 09:26:34;;;;;;;115.97;57.00;;;;;;;8.72;79.78;101528.94;5011226;28;20099;-81
2022/12/22 09:29:02;;;;;;;133.98;66.32;;;;;;;8.26;80.25;101452.56;5025080;28;20064;-82
2022/12/22 09:31:29;;;;;;;110.30;56.47;;;;;;;8.78;80.56;101533.81;5018845;28;20134;-79
2022/12/22 09:33:57;;;;;;;113.32;54.97;;;;;;;8.93;79.53;101526.69;4994557;28;20457;-79
2022/12/22 09:36:27;;;;;;;112.30;55.20;;;;;;;9.01;78.96;101517.38;4984142;28;20058;-79
2022/12/22 09:38:57;;;;;;;101.15;53.95;;;;;;;8.87;78.21;101494.47;4977673;28;20065;-80
2022/12/22 09:41:43;;;;;;;119.38;55.67;;;;;;;8.83;78.13;101482.38;4977343;28;20058;-80
2022/12/22 09:44:31;;;;;;;106.50;54.35;;;;;;;8.85;78.34;101473.38;5002863;28;20963;-79
2022/12/22 09:47:17;;;;;;;109.10;55.05;;;;;;;8.33;77.88;101379.78;5000420;28;20065;-82
2022/12/22 09:49:44;;;;;;;98.95;53.30;;;;;;;8.92;77.60;101468.50;5001272;28;20120;-83
2022/12/22 09:52:29;;;;;;;99.95;51.08;;;;;;;8.90;77.31;101454.53;5000428;28;20045;-82
2022/12/22 09:54:55;;;;;;;118.05;56.50;;;;;;;9.00;76.88;101452.94;5000220;28;20061;-83
2022/12/22 09:57:28;;;;;;;106.60;54.15;;;;;;;9.19;76.50;101485.13;5001833;28;20385;-83
2022/12/22 10:00:00;;;;;;;120.90;55.55;;;;;;;9.03;77.14;101468.63;4997458;28;20362;-82
2022/12/22 10:02:33;;;;;;;105.85;56.22;;;;;;;8.45;77.37;101361.41;4997191;28;20069;-84
2022/12/22 10:05:53;;;;;;;112.00;55.05;;;;;;;9.19;77.81;101482.50;5015101;28;20053;-82
2022/12/22 10:08:39;;;;;;;113.05;55.60;;;;;;;9.07;78.13;101454.19;4928365;28;20511;-81
2022/12/22 10:11:15;;;;;;;107.72;54.25;;;;;;;9.25;77.19;101457.41;5007580;28;20049;-82
2022/12/22 10:13:45;;;;;;;105.78;54.92;;;;;;;9.38;76.96;101466.16;5014087;28;20057;-81
2022/12/22 10:16:22;;;;;;;106.55;54.33;;;;;;;9.44;75.75;101462.22;5018271;28;20311;-81
2022/12/22 10:19:06;;;;;;;103.70;52.20;;;;;;;9.38;75.15;101462.69;5027322;28;20411;-80
2022/12/22 10:21:38;;;;;;;103.40;49.75;;;;;;;9.38;75.51;101482.06;5006171;28;20558;-80
2022/12/22 10:24:24;;;;;;;100.82;50.65;;;;;;;9.43;75.47;101470.31;5020741;28;20055;-81
2022/12/22 10:26:56;;;;;;;103.07;52.45;;;;;;;9.03;76.37;101415.66;5005063;28;20052;-79
2022/12/22 10:29:24;;;;;;;101.72;51.47;;;;;;;8.63;76.87;101349.56;5022057;28;20088;-81
2022/12/22 10:32:11;;;;;;;89.78;47.53;;;;;;;9.47;74.93;101462.03;4998794;28;20119;-81
2022/12/22 10:35:02;;;;;;;106.28;50.97;;;;;;;9.35;74.87;101450.50;4983170;28;20053;-81
2022/12/22 10:37:32;;;;;;;95.82;47.28;;;;;;;9.44;75.13;101445.50;4984687;28;20081;-82
2022/12/22 10:40:10;;;;;;;87.50;43.50;;;;;;;9.58;74.75;101464.75;4986346;28;20479;-82
2022/12/22 10:42:37;;;;;;;93.20;46.40;;;;;;;9.46;74.62;101449.72;5005243;28;20052;-81
2022/12/22 10:45:14;;;;;;;90.47;46.88;;;;;;;9.52;74.78;101433.41;5023407;28;20060;-80
2022/12/22 10:47:46;;;;;;;94.97;49.20;;;;;;;8.84;74.86;101326.06;5005933;28;20635;-80
2022/12/22 10:50:13;;;;;;;;;;;;;;;9.59;74.73;101433.81;5004593;28;20045;-80
2022/12/22 10:52:50;;;;;;;90.00;45.47;;;;;;;9.40;75.27;101391.88;5023599;28;19925;-80
2022/12/22 10:55:18;;;;;;;74.85;39.58;;;;;;;9.22;74.93;101362.22;5021552;28;20258;-81
2022/12/22 10:57:45;;;;;;;83.18;40.60;;;;;;;9.67;74.05;101417.34;5003921;28;20118;-80
2022/12/22 11:00:23;;;;;;;84.60;42.15;;;;;;;9.63;74.84;101411.41;5005386;28;20306;-81
2022/12/22 11:02:52;;;;;;;81.47;40.75;;;;;;;8.91;75.74;101284.94;5002596;28;20061;-80
2022/12/22 11:05:19;;;;;;;73.38;38.80;;;;;;;9.69;74.59;101407.50;5022875;28;20416;-79
2022/12/22 11:07:46;;;;;;;79.15;39.55;;;;;;;9.67;73.84;101393.50;5003297;28;20634;-81
2022/12/22 11:10:13;;;;;;;71.97;37.50;;;;;;;9.45;73.67;101347.31;5007257;28;20053;-82
2022/12/22 11:13:18;;;;;;;82.55;39.45;;;;;;;9.86;73.08;101406.25;5001235;28;20135;-82
2022/12/22 11:15:55;;;;;;;83.90;42.28;;;;;;;9.89;74.21;101403.38;5001901;28;20525;-81
2022/12/22 11:18:28;;;;;;;77.57;42.30;;;;;;;9.99;73.98;101396.44;5003116;28;20434;-82
2022/12/22 11:21:14;;;;;;;61.65;33.55;;;;;;;10.09;73.53;101407.22;5003181;28;20441;-84
2022/12/22 11:23:49;;;;;;;78.13;43.15;;;;;;;8.89;73.42;101206.56;5003187;28;20364;-82
2022/12/22 11:26:52;;;;;;;73.65;43.10;;;;;;;10.03;74.78;101396.09;5004524;28;20334;-82
2022/12/22 11:29:28;;;;;;;86.70;42.85;;;;;;;10.06;74.03;101395.84;5002682;28;20326;-83
2022/12/22 11:32:07;;;;;;;84.78;44.63;;;;;;;10.11;73.44;101384.06;5002320;28;20056;-82
2022/12/22 11:35:28;;;;;;;85.43;47.35;;;;;;;9.54;73.57;101308.69;5002977;28;20151;-84
2022/12/22 11:38:23;;;;;;;89.47;44.97;;;;;;;9.78;74.25;101343.16;4928851;28;20226;-82
2022/12/22 11:41:14;;;;;;;81.88;46.58;;;;;;;10.00;73.65;101368.94;5022130;28;20063;-83
2022/12/22 11:43:56;;;;;;;85.35;44.00;;;;;;;9.99;73.64;101381.34;5029736;28;20049;-81
2022/12/22 11:46:53;;;;;;;74.90;38.78;;;;;;;9.71;72.85;101331.31;5019444;28;20146;-84
2022/12/22 11:49:32;;;;;;;64.15;38.10;;;;;;;10.16;72.19;101379.25;4941559;28;20226;-83
2022/12/22 11:52:29;;;;;;;79.85;41.47;;;;;;;10.20;73.21;101407.28;4999366;28;20345;-83
2022/12/22 11:55:12;;;;;;;84.10;40.25;;;;;;;10.32;73.11;101406.38;5014098;28;20052;-83
2022/12/22 11:58:15;;;;;;;75.88;38.97;;;;;;;10.01;72.98;101355.56;5015338;28;20393;-83
2022/12/22 12:00:53;;;;;;;83.53;42.15;;;;;;;9.87;72.75;101331.88;5002735;28;20215;-82
2022/12/22 12:04:00;;;;;;;81.28;40.33;;;;;;;9.45;72.43;101241.31;5000690;28;20053;-83
2022/12/22 12:06:59;;;;;;;87.57;43.33;;;;;;;10.31;74.16;101399.38;5002242;28;20241;-83
2022/12/22 12:09:38;;;;;;;74.75;42.80;;;;;;;10.36;73.67;101401.69;5000951;28;20188;-83
2022/12/22 12:12:37;;;;;;;79.70;43.53;;;;;;;10.51;73.53;101405.84;5000098;28;20049;-83
2022/12/22 12:15:17;;;;;;;88.25;45.40;;;;;;;10.61;72.81;101406.84;4998441;28;20057;-83
2022/12/22 12:18:22;;;;;;;90.40;48.15;;;;;;;10.56;73.88;101424.94;5000028;28;20184;-83
2022/12/22 12:21:11;;;;;;;105.38;53.60;;;;;;;10.52;73.55;101428.75;4994797;28;20053;-81
2022/12/22 12:24:10;;;;;;;113.05;53.92;;;;;;;10.50;74.46;101413.91;5020828;28;20120;-81
2022/12/22 12:26:51;;;;;;;108.30;55.45;;;;;;;10.52;73.91;101406.69;4999774;28;20060;-82
2022/12/22 12:29:38;;;;;;;104.32;52.28;;;;;;;10.17;74.18;101362.38;5000655;28;20154;-83
2022/12/22 12:32:25;;;;;;;101.78;53.85;;;;;;;10.39;74.07;101399.66;4996450;28;20041;-81
2022/12/22 12:35:03;;;;;;;105.18;53.88;;;;;;;10.50;74.15;101395.34;4997417;28;20456;-81
2022/12/22 12:37:36;;;;;;;112.78;54.55;;;;;;;9.87;74.14;101294.75;4997831;28;20515;-82
2022/12/22 12:40:18;;;;;;;100.28;54.17;;;;;;;10.41;73.78;101384.47;4997541;28;20053;-82
2022/12/22 12:42:49;;;;;;;106.85;54.75;;;;;;;10.23;74.66;101353.97;5009319;28;20052;-82
2022/12/22 12:45:38;;;;;;;100.60;54.63;;;;;;;10.40;75.31;101381.91;4999191;28;20470;-81
2022/12/22 12:48:27;;;;;;;114.05;54.80;;;;;;;10.37;73.28;101371.53;4998156;28;20049;-82
2022/12/22 12:50:57;;;;;;;102.10;54.30;;;;;;;10.50;74.40;101398.00;4996663;28;20057;-82
2022/12/22 12:53:27;;;;;;;94.47;50.58;;;;;;;10.32;74.54;101376.34;5007740;28;20057;-82
2022/12/22 12:56:06;;;;;;;92.05;51.63;;;;;;;10.23;74.54;101361.91;5012895;28;20053;-82
2022/12/22 12:58:38;;;;;;;91.82;52.63;;;;;;;10.48;73.86;101388.34;5014255;28;20115;-82
2022/12/22 13:01:31;;;;;;;90.88;53.63;;;;;;;10.42;74.31;101391.44;5012842;28;20242;-81
2022/12/22 13:03:58;;;;;;;100.57;53.38;;;;;;;10.36;73.77;101391.91;5027410;28;20084;-82
2022/12/22 13:06:48;;;;;;;101.72;55.70;;;;;;;10.27;74.65;101382.81;5015764;28;20526;-82
2022/12/22 13:09:22;;;;;;;110.30;57.97;;;;;;;10.09;75.32;101367.41;5016661;28;20449;-82
2022/12/22 13:12:47;;;;;;;106.47;58.05;;;;;;;10.32;75.12;101385.16;5009066;28;20266;-83
2022/12/22 13:15:30;;;;;;;92.25;56.80;;;;;;;10.35;75.39;101371.63;4995972;28;20389;-81
2022/12/22 13:18:01;;;;;;;98.97;56.30;;;;;;;10.27;75.04;101353.63;4999741;28;20056;-81
2022/12/22 13:20:32;;;;;;;103.10;58.25;;;;;;;10.10;74.99;101306.28;4997152;28;20060;-82
2022/12/22 13:23:11;;;;;;;95.80;57.67;;;;;;;9.67;75.02;101235.25;4981567;28;20393;-83
2022/12/22 13:26:00;;;;;;;100.27;58.00;;;;;;;10.25;75.38;101325.50;4999758;28;20045;-82
2022/12/22 13:28:28;;;;;;;98.18;58.30;;;;;;;9.29;75.53;101169.22;5017098;28;20463;-82
2022/12/22 13:31:05;;;;;;;106.93;57.92;;;;;;;10.17;75.31;101293.38;5018933;28;20049;-81
2022/12/22 13:33:38;;;;;;;103.68;58.45;;;;;;;9.42;76.08;101156.75;4996985;28;20060;-81
2022/12/22 13:36:14;;;;;;;96.97;56.65;;;;;;;9.20;76.05;101118.63;5000503;28;20369;-83
2022/12/22 13:38:41;;;;;;;102.72;59.22;;;;;;;9.78;75.83;101219.41;4999142;28;20586;-80
2022/12/22 13:41:27;;;;;;;106.63;58.65;;;;;;;10.40;75.65;101319.03;4994784;28;20445;-80
2022/12/22 13:44:04;;;;;;;107.13;58.70;;;;;;;10.52;75.53;101345.63;4998168;28;20053;-83
2022/12/22 13:46:35;;;;;;;99.93;57.17;;;;;;;10.39;75.58;101300.56;5018349;28;20179;-79
2022/12/22 13:49:05;;;;;;;102.32;56.83;;;;;;;10.68;74.53;101328.41;5004630;28;20609;-80
2022/12/22 13:51:37;;;;;;;98.78;57.97;;;;;;;10.82;73.56;101335.25;4986599;28;20050;-78
2022/12/22 13:54:22;;;;;;;97.85;57.60;;;;;;;10.74;73.66;101327.06;4983919;28;20053;-79
2022/12/22 13:56:51;;;;;;;100.82;57.65;;;;;;;10.50;73.69;101299.75;5011324;28;20061;-79
2022/12/22 13:59:35;;;;;;;107.10;58.78;;;;;;;10.52;74.58;101327.03;5002783;28;20135;-79
2022/12/22 14:02:16;;;;;;;99.30;57.92;;;;;;;10.10;74.17;101257.66;5023948;28;20878;-77
2022/12/22 14:05:03;;;;;;;103.88;57.13;;;;;;;10.40;74.34;101297.81;5020197;28;20225;-79
2022/12/22 14:07:30;;;;;;;97.10;56.28;;;;;;;10.44;75.02;101293.97;5019558;28;20083;-79
2022/12/22 14:09:57;;;;;;;99.97;55.38;;;;;;;10.55;75.53;101301.09;5002898;28;20912;-79
2022/12/22 14:12:38;;;;;;;103.78;56.50;;;;;;;10.49;75.51;101293.63;5000392;28;20400;-79
2022/12/22 14:15:14;;;;;;;90.57;50.90;;;;;;;10.48;75.72;101284.81;5012332;28;20159;-80
2022/12/22 14:17:42;;;;;;;95.85;52.30;;;;;;;10.61;75.14;101308.59;5023757;28;20388;-79
2022/12/22 14:20:21;;;;;;;102.30;56.25;;;;;;;10.55;75.36;101269.22;5019643;28;20628;-79
2022/12/22 14:22:56;;;;;;;106.35;57.63;;;;;;;10.65;74.59;101274.66;5004357;28;20053;-79
2022/12/22 14:25:50;;;;;;;110.13;54.80;;;;;;;10.66;75.20;101293.13;5005482;28;20799;-79
2022/12/22 14:28:28;;;;;;;108.88;53.10;;;;;;;10.83;74.96;101314.88;5010785;28;20111;-80
2022/12/22 14:30:57;;;;;;;99.78;53.63;;;;;;;10.56;74.56;101272.72;5027367;28;20159;-80
2022/12/22 14:33:31;;;;;;;90.53;49.72;;;;;;;10.87;74.10;101295.06;5028250;28;20061;-80
2022/12/22 14:36:19;;;;;;;92.50;49.22;;;;;;;9.67;73.58;101064.75;5023593;28;20332;-79
2022/12/22 14:38:57;;;;;;;74.97;44.65;;;;;;;11.04;74.34;101294.56;5018023;28;20057;-80
2022/12/22 14:41:50;;;;;;;102.80;51.60;;;;;;;10.86;74.19;101270.31;5012094;28;20402;-80
2022/12/22 14:44:21;;;;;;;90.10;48.00;;;;;;;11.00;74.24;101285.16;5030445;28;20684;-80
2022/12/22 14:47:21;;;;;;;79.20;43.47;;;;;;;11.06;73.70;101274.03;5020004;28;20059;-79
2022/12/22 14:49:53;;;;;;;102.85;51.88;;;;;;;10.91;73.74;101244.22;5026557;28;20053;-79
2022/12/22 14:52:34;;;;;;;100.80;50.90;;;;;;;11.06;74.54;101276.69;5024233;28;20204;-79
2022/12/22 14:55:03;;;;;;;83.95;41.72;;;;;;;10.89;75.34;101262.09;5028109;28;20053;-80
2022/12/22 14:57:39;;;;;;;105.57;51.30;;;;;;;10.46;75.26;101200.91;5012452;28;20527;-79
2022/12/22 15:00:20;;;;;;;103.03;51.83;;;;;;;10.85;75.58;101281.06;5021446;28;20053;-79
2022/12/22 15:02:57;;;;;;;108.50;54.30;;;;;;;10.76;76.15;101287.94;5004600;28;20087;-77
2022/12/22 15:05:27;;;;;;;97.20;48.90;;;;;;;10.68;76.38;101274.44;5002709;28;20584;-79
2022/12/22 15:07:56;;;;;;;109.63;52.55;;;;;;;10.62;77.03;101280.22;5001602;28;20316;-79
2022/12/22 15:10:41;;;;;;;104.38;52.80;;;;;;;10.58;76.76;101278.75;5020376;28;20052;-79
2022/12/22 15:13:22;;;;;;;106.95;51.83;;;;;;;9.90;76.85;101169.84;5005950;28;20048;-79
2022/12/22 15:15:52;;;;;;;111.72;52.90;;;;;;;10.41;76.90;101259.72;5005237;28;20071;-78
2022/12/22 15:18:25;;;;;;;96.85;49.15;;;;;;;10.46;77.87;101264.63;5005319;28;20060;-80
2022/12/22 15:20:56;;;;;;;109.97;55.08;;;;;;;10.37;77.65;101239.66;5005164;28;20759;-79